createdAt,value
2023-04-26T00:01:36.499Z,6.81
2023-04-26T00:04:39.010Z,6.72
2023-04-26T00:07:40.505Z,6.78
2023-04-26T00:10:41.991Z,6.81
2023-04-26T00:13:43.391Z,6.72
2023-04-26T00:16:44.992Z,6.70
2023-04-26T00:19:46.915Z,6.70
2023-04-26T00:22:48.323Z,6.84
2023-04-26T00:25:49.878Z,6.93
2023-04-26T00:28:51.466Z,6.99
2023-04-26T00:31:53.081Z,7.03
2023-04-26T00:34:54.498Z,6.94
2023-04-26T00:37:56.150Z,6.86
2023-04-26T00:40:57.555Z,6.83
2023-04-26T00:43:58.937Z,6.86
2023-04-26T00:47:01.496Z,6.87
2023-04-26T00:50:04.532Z,6.93
2023-04-26T00:53:07.640Z,6.97
2023-04-26T00:56:10.252Z,6.90
2023-04-26T00:59:11.876Z,6.85
2023-04-26T01:02:13.752Z,6.91
2023-04-26T01:05:15.234Z,6.96
2023-04-26T01:08:20.999Z,6.80
2023-04-26T01:11:22.958Z,6.84
2023-04-26T01:14:24.991Z,6.74
2023-04-26T01:17:27.500Z,6.62
2023-04-26T01:20:32.215Z,6.55
2023-04-26T01:23:33.647Z,6.47
2023-04-26T01:26:35.448Z,6.30
2023-04-26T01:29:36.839Z,6.25
2023-04-26T01:32:39.116Z,6.28
2023-04-26T01:35:40.706Z,6.32
2023-04-26T01:38:42.102Z,6.25
2023-04-26T01:41:43.521Z,6.18
2023-04-26T01:44:44.917Z,6.07
2023-04-26T01:47:46.451Z,6.06
2023-04-26T01:50:47.883Z,6.07
2023-04-26T01:53:49.281Z,6.06
2023-04-26T01:56:50.958Z,6.02
2023-04-26T01:59:54.121Z,5.91
2023-04-26T02:02:56.322Z,5.66
2023-04-26T02:05:57.925Z,5.55
2023-04-26T02:09:01.135Z,5.47
2023-04-26T02:12:02.789Z,5.45
2023-04-26T02:15:05.053Z,5.38
2023-04-26T02:18:07.016Z,5.30
2023-04-26T02:21:09.206Z,5.31
2023-04-26T02:24:11.206Z,5.41
2023-04-26T02:27:12.842Z,5.47
2023-04-26T02:30:14.313Z,5.43
2023-04-26T02:33:16.662Z,5.35
2023-04-26T02:36:18.460Z,5.32
2023-04-26T02:39:20.874Z,5.26
2023-04-26T02:42:22.402Z,5.26
2023-04-26T02:45:24.136Z,5.28
2023-04-26T02:48:25.823Z,5.25
2023-04-26T02:51:28.290Z,5.23
2023-04-26T02:54:29.732Z,5.25
2023-04-26T02:57:32.011Z,5.20
2023-04-26T03:00:34.163Z,5.15
2023-04-26T03:03:37.183Z,5.04
2023-04-26T03:06:38.759Z,4.95
2023-04-26T03:09:40.414Z,4.91
2023-04-26T03:12:42.327Z,4.96
2023-04-26T03:15:46.969Z,5.01
2023-04-26T03:18:48.441Z,5.01
2023-04-26T03:21:49.893Z,5.03
2023-04-26T03:24:51.870Z,5.07
2023-04-26T03:27:53.724Z,5.06
2023-04-26T03:30:55.173Z,5.07
2023-04-26T03:33:56.584Z,4.93
2023-04-26T03:36:58.333Z,4.90
2023-04-26T03:39:59.740Z,4.89
2023-04-26T03:43:01.554Z,4.82
2023-04-26T03:46:03.259Z,4.79
2023-04-26T03:49:04.877Z,4.86
2023-04-26T03:52:06.906Z,4.82
2023-04-26T03:55:10.112Z,4.84
2023-04-26T03:58:12.442Z,4.83
2023-04-26T04:01:13.830Z,4.77
2023-04-26T04:04:15.678Z,4.71
2023-04-26T04:07:19.149Z,4.73
2023-04-26T04:10:22.819Z,4.68
2023-04-26T04:13:24.281Z,4.70
2023-04-26T04:16:26.765Z,4.70
2023-04-26T04:19:28.230Z,4.71
2023-04-26T04:22:30.202Z,4.79
2023-04-26T04:25:33.213Z,4.76
2023-04-26T04:28:37.165Z,4.73
2023-04-26T04:31:40.108Z,4.83
2023-04-26T04:34:42.449Z,4.84
2023-04-26T04:37:45.425Z,5.01
2023-04-26T04:40:49.783Z,5.33
2023-04-26T04:43:54.048Z,5.33
2023-04-26T04:46:56.657Z,5.25
2023-04-26T04:49:58.965Z,5.20
2023-04-26T04:53:01.246Z,5.11
2023-04-26T04:56:04.382Z,5.23
2023-04-26T04:59:06.426Z,5.21
2023-04-26T05:02:08.571Z,5.22
2023-04-26T05:05:12.141Z,5.18
2023-04-26T05:08:14.473Z,5.27
2023-04-26T05:11:16.080Z,5.40
2023-04-26T05:14:17.728Z,5.50
2023-04-26T05:17:19.200Z,5.53
2023-04-26T05:20:21.610Z,5.54
2023-04-26T05:23:23.941Z,5.62
2023-04-26T05:26:25.512Z,5.67
2023-04-26T05:29:47.498Z,5.65
2023-04-26T05:32:59.843Z,5.56
2023-04-26T05:36:15.681Z,5.44
2023-04-26T05:39:19.027Z,5.48
2023-04-26T05:42:21.083Z,5.59
2023-04-26T05:45:22.865Z,5.58
2023-04-26T05:48:25.572Z,5.57
2023-04-26T05:51:28.398Z,5.59
2023-04-26T05:54:31.329Z,5.60
2023-04-26T05:57:33.066Z,5.69
2023-04-26T06:00:34.970Z,5.83
2023-04-26T06:03:37.372Z,5.95
2023-04-26T06:06:39.416Z,6.16
2023-04-26T06:09:40.927Z,6.34
2023-04-26T06:12:45.116Z,6.47
2023-04-26T06:15:46.577Z,6.57
2023-04-26T06:18:50.252Z,6.62
2023-04-26T06:21:57.238Z,6.78
2023-04-26T06:24:59.042Z,6.92
2023-04-26T06:28:01.420Z,7.04
2023-04-26T06:31:05.876Z,7.15
2023-04-26T06:34:08.593Z,7.21
2023-04-26T06:37:10.210Z,7.17
2023-04-26T06:40:16.426Z,7.22
2023-04-26T06:43:18.888Z,7.23
2023-04-26T06:46:28.592Z,7.43
2023-04-26T06:49:30.461Z,7.52
2023-04-26T06:52:31.865Z,7.74
2023-04-26T06:55:34.954Z,7.95
2023-04-26T06:58:36.648Z,7.77
2023-04-26T07:01:38.800Z,7.66
2023-04-26T07:04:40.562Z,7.82
2023-04-26T07:07:42.073Z,7.96
2023-04-26T07:10:46.226Z,8.09
2023-04-26T07:13:52.357Z,8.04
2023-04-26T07:16:54.483Z,8.06
2023-04-26T07:19:56.281Z,8.37
2023-04-26T07:22:58.498Z,8.99
2023-04-26T07:26:01.632Z,9.20
2023-04-26T07:29:03.942Z,9.48
2023-04-26T07:32:06.217Z,9.41
2023-04-26T07:35:08.613Z,9.70
2023-04-26T07:38:11.161Z,9.68
2023-04-26T07:41:12.933Z,9.67
2023-04-26T07:44:14.555Z,9.78
2023-04-26T07:47:17.486Z,9.75
2023-04-26T07:50:21.207Z,9.98
2023-04-26T07:53:23.043Z,10.06
2023-04-26T07:56:25.059Z,10.22
2023-04-26T07:59:26.654Z,10.23
2023-04-26T08:02:43.323Z,10.07
2023-04-26T08:05:46.165Z,10.24
2023-04-26T08:08:50.324Z,10.19
2023-04-26T08:11:52.590Z,10.60
2023-04-26T08:14:54.678Z,10.85
2023-04-26T08:17:56.341Z,11.06
2023-04-26T08:20:58.312Z,11.18
2023-04-26T08:24:00.006Z,11.45
2023-04-26T08:27:01.531Z,11.49
2023-04-26T08:30:04.886Z,11.69
2023-04-26T08:33:06.874Z,11.63
2023-04-26T08:36:08.561Z,11.49
2023-04-26T08:39:12.114Z,11.39
2023-04-26T08:42:15.888Z,11.48
2023-04-26T08:45:17.508Z,11.42
2023-04-26T08:48:19.654Z,11.49
2023-04-26T08:51:23.128Z,11.48
2023-04-26T08:54:25.901Z,11.97
2023-04-26T08:57:27.593Z,12.09
2023-04-26T09:00:30.299Z,12.18
2023-04-26T09:03:31.899Z,12.30
2023-04-26T09:06:34.366Z,12.35
2023-04-26T09:09:42.230Z,12.54
2023-04-26T09:12:45.256Z,12.79
2023-04-26T09:15:50.169Z,12.84
2023-04-26T09:18:52.435Z,12.61
2023-04-26T09:21:56.027Z,12.40
2023-04-26T09:24:57.851Z,12.77
2023-04-26T09:28:03.078Z,12.84
2023-04-26T09:31:04.557Z,12.63
2023-04-26T09:34:06.035Z,12.15
2023-04-26T09:37:13.768Z,11.68
2023-04-26T09:40:19.770Z,11.53
2023-04-26T09:43:22.193Z,11.74
2023-04-26T09:46:25.610Z,11.82
2023-04-26T09:49:30.982Z,12.05
2023-04-26T09:52:42.610Z,12.29
2023-04-26T09:55:45.754Z,12.63
2023-04-26T09:58:47.079Z,12.78
2023-04-26T10:01:48.597Z,12.09
2023-04-26T10:04:51.765Z,12.05
2023-04-26T10:07:54.917Z,12.11
2023-04-26T10:10:56.482Z,11.87
2023-04-26T10:13:58.834Z,11.98
2023-04-26T10:17:03.201Z,12.10
2023-04-26T10:20:08.446Z,12.26
2023-04-26T10:23:25.447Z,12.31
2023-04-26T10:26:49.739Z,12.60
2023-04-26T10:29:56.422Z,12.68
2023-04-26T10:33:13.779Z,12.77
2023-04-26T10:36:15.570Z,12.65
2023-04-26T10:39:21.704Z,12.67
2023-04-26T10:42:30.823Z,12.91
2023-04-26T10:45:32.428Z,12.75
2023-04-26T10:48:33.870Z,12.66
2023-04-26T10:51:35.739Z,12.67
2023-04-26T10:54:51.119Z,12.82
2023-04-26T10:57:53.750Z,12.96
2023-04-26T11:01:17.408Z,12.71
2023-04-26T11:04:19.246Z,12.67
2023-04-26T11:07:41.002Z,12.69
2023-04-26T11:10:43.545Z,12.84
2023-04-26T11:13:45.917Z,12.55
2023-04-26T11:16:47.297Z,12.37
2023-04-26T11:19:49.692Z,12.53
2023-04-26T11:22:54.329Z,13.00
2023-04-26T11:26:04.980Z,13.50
2023-04-26T11:29:09.191Z,13.52
2023-04-26T11:32:12.974Z,13.73
2023-04-26T11:35:15.512Z,13.49
2023-04-26T11:38:17.610Z,13.63
2023-04-26T11:41:19.053Z,13.59
2023-04-26T11:44:22.322Z,13.40
2023-04-26T11:47:26.275Z,13.69
2023-04-26T11:50:35.175Z,13.35
2023-04-26T11:53:41.765Z,13.24
2023-04-26T11:56:43.178Z,13.32
2023-04-26T11:59:44.993Z,13.77
2023-04-26T12:02:47.675Z,13.98
2023-04-26T12:05:56.137Z,14.27
2023-04-26T12:08:57.679Z,14.36
2023-04-26T12:12:06.318Z,14.84
2023-04-26T12:15:13.865Z,14.37
2023-04-26T12:18:18.626Z,14.42
2023-04-26T12:21:20.859Z,14.46
2023-04-26T12:24:24.162Z,14.95
2023-04-26T12:27:25.638Z,14.69
2023-04-26T12:30:28.467Z,14.45
2023-04-26T12:33:38.309Z,14.58
2023-04-26T12:36:44.505Z,14.37
2023-04-26T12:39:46.946Z,14.36
2023-04-26T12:42:50.723Z,14.30
2023-04-26T12:45:52.781Z,14.32
2023-04-26T12:48:54.798Z,14.26
2023-04-26T12:51:56.915Z,14.27
2023-04-26T12:54:58.909Z,14.23
2023-04-26T12:58:01.993Z,14.59
2023-04-26T13:01:05.011Z,14.79
2023-04-26T13:04:06.989Z,14.88
2023-04-26T13:07:08.807Z,14.86
2023-04-26T13:10:13.113Z,15.03
2023-04-26T13:13:14.776Z,14.91
2023-04-26T13:16:16.848Z,14.91
2023-04-26T13:19:18.367Z,14.59
2023-04-26T13:22:20.916Z,14.67
2023-04-26T13:25:22.365Z,14.63
2023-04-26T13:28:23.746Z,14.73
2023-04-26T13:31:25.612Z,14.75
2023-04-26T13:34:29.518Z,14.97
2023-04-26T13:37:32.479Z,15.41
2023-04-26T13:40:34.623Z,15.18
2023-04-26T13:43:36.070Z,15.59
2023-04-26T13:46:37.455Z,15.13
2023-04-26T13:49:41.689Z,15.53
2023-04-26T13:52:43.089Z,15.84
2023-04-26T13:55:44.501Z,16.32
2023-04-26T13:58:46.059Z,16.51
2023-04-26T14:01:47.553Z,16.81
2023-04-26T14:04:49.335Z,16.59
2023-04-26T14:07:52.410Z,16.47
2023-04-26T14:10:55.699Z,16.42
2023-04-26T14:13:57.493Z,16.60
2023-04-26T14:16:59.928Z,16.05
2023-04-26T14:20:01.929Z,15.99
2023-04-26T14:23:03.398Z,16.08
2023-04-26T14:26:04.851Z,16.56
2023-04-26T14:29:06.369Z,16.04
2023-04-26T14:32:07.918Z,15.56
2023-04-26T14:35:09.519Z,15.77
2023-04-26T14:38:10.997Z,16.10
2023-04-26T14:41:17.302Z,16.65
2023-04-26T14:44:18.748Z,16.38
2023-04-26T14:47:20.210Z,16.71
2023-04-26T14:50:21.713Z,17.04
2023-04-26T14:53:25.708Z,16.69
2023-04-26T14:56:32.709Z,16.67
2023-04-26T14:59:34.618Z,16.51
2023-04-26T15:02:36.920Z,16.57
2023-04-26T15:05:38.839Z,16.32
2023-04-26T15:08:40.338Z,16.35
2023-04-26T15:11:41.725Z,16.35
2023-04-26T15:14:43.779Z,16.63
2023-04-26T15:17:45.264Z,17.28
2023-04-26T15:20:46.854Z,17.06
2023-04-26T15:23:48.353Z,16.91
2023-04-26T15:26:49.747Z,16.87
2023-04-26T15:29:51.219Z,16.86
2023-04-26T15:32:52.836Z,16.55
2023-04-26T15:35:54.381Z,16.31
2023-04-26T15:38:55.974Z,16.27
2023-04-26T15:41:58.799Z,16.41
2023-04-26T15:45:00.421Z,16.65
2023-04-26T15:48:01.892Z,16.51
2023-04-26T15:51:05.233Z,16.29
2023-04-26T15:54:07.701Z,16.66
2023-04-26T15:57:09.131Z,16.58
2023-04-26T16:00:14.020Z,16.06
2023-04-26T16:03:16.207Z,16.04
2023-04-26T16:06:17.908Z,16.60
2023-04-26T16:09:25.421Z,16.46
2023-04-26T16:12:27.219Z,15.96
2023-04-26T16:15:28.818Z,16.20
2023-04-26T16:18:32.550Z,16.44
2023-04-26T16:21:34.070Z,16.10
2023-04-26T16:24:35.780Z,15.59
2023-04-26T16:27:37.325Z,15.37
2023-04-26T16:30:39.162Z,15.25
2023-04-26T16:33:42.258Z,15.08
2023-04-26T16:36:43.748Z,14.89
2023-04-26T16:39:45.848Z,14.77
2023-04-26T16:42:48.007Z,14.80
2023-04-26T16:45:57.135Z,14.78
2023-04-26T16:48:58.868Z,14.66
2023-04-26T16:52:01.672Z,14.65
2023-04-26T16:55:04.044Z,14.57
2023-04-26T16:58:05.908Z,14.56
2023-04-26T17:01:08.512Z,14.62
2023-04-26T17:04:12.334Z,14.62
2023-04-26T17:07:16.395Z,14.55
2023-04-26T17:10:17.969Z,14.63
2023-04-26T17:13:19.654Z,14.64
2023-04-26T17:16:21.933Z,14.59
2023-04-26T17:19:23.586Z,14.52
2023-04-26T17:22:26.188Z,14.45
2023-04-26T17:25:28.160Z,14.29
2023-04-26T17:28:29.780Z,14.31
2023-04-26T17:31:31.257Z,14.18
2023-04-26T17:34:32.661Z,14.19
2023-04-26T17:37:34.307Z,14.22
2023-04-26T17:40:35.896Z,14.17
2023-04-26T17:43:37.412Z,14.08
2023-04-26T17:46:38.811Z,14.07
2023-04-26T17:49:40.355Z,14.08
2023-04-26T17:52:41.871Z,14.05
2023-04-26T17:55:45.601Z,13.89
2023-04-26T17:58:47.023Z,13.81
2023-04-26T18:01:48.628Z,13.71
2023-04-26T18:04:50.471Z,13.73
2023-04-26T18:07:51.990Z,13.71
2023-04-26T18:10:54.093Z,13.69
2023-04-26T18:13:56.637Z,13.66
2023-04-26T18:16:58.106Z,13.62
2023-04-26T18:19:59.526Z,13.54
2023-04-26T18:23:01.074Z,13.46
2023-04-26T18:26:03.027Z,13.40
2023-04-26T18:29:04.480Z,13.38
2023-04-26T18:32:06.099Z,13.41
2023-04-26T18:35:08.132Z,13.39
2023-04-26T18:38:09.613Z,13.29
2023-04-26T18:41:11.751Z,13.20
2023-04-26T18:44:13.375Z,13.30
2023-04-26T18:47:14.964Z,13.20
2023-04-26T18:50:17.970Z,13.13
2023-04-26T18:53:21.845Z,13.05
2023-04-26T18:56:23.667Z,12.93
2023-04-26T18:59:26.214Z,12.82
2023-04-26T19:02:28.813Z,12.76
2023-04-26T19:05:30.980Z,12.87
2023-04-26T19:08:32.389Z,12.87
2023-04-26T19:11:33.798Z,12.94
2023-04-26T19:14:35.999Z,12.94
2023-04-26T19:17:37.554Z,12.86
2023-04-26T19:20:39.029Z,12.85
2023-04-26T19:23:40.413Z,12.83
2023-04-26T19:26:42.181Z,12.84
2023-04-26T19:29:43.721Z,12.83
2023-04-26T19:32:45.144Z,12.76
2023-04-26T19:35:46.604Z,12.77
2023-04-26T19:38:48.449Z,12.80
2023-04-26T19:41:49.895Z,12.80
2023-04-26T19:44:51.294Z,12.80
2023-04-26T19:47:52.766Z,12.81
2023-04-26T19:50:54.223Z,12.78
2023-04-26T19:53:56.702Z,12.79
2023-04-26T19:56:58.233Z,12.81
2023-04-26T19:59:59.966Z,12.77
2023-04-26T20:03:02.126Z,12.73
2023-04-26T20:06:05.702Z,12.71
2023-04-26T20:09:07.358Z,12.68
2023-04-26T20:12:09.178Z,12.62
2023-04-26T20:15:12.507Z,12.58
2023-04-26T20:18:13.907Z,12.50
2023-04-26T20:21:15.511Z,12.32
2023-04-26T20:24:17.059Z,12.24
2023-04-26T20:27:18.467Z,12.07
2023-04-26T20:30:19.963Z,12.07
2023-04-26T20:33:21.370Z,12.07
2023-04-26T20:36:22.765Z,11.87
2023-04-26T20:39:27.725Z,11.85
2023-04-26T20:42:29.338Z,11.90
2023-04-26T20:45:30.747Z,11.93
2023-04-26T20:48:32.298Z,11.82
2023-04-26T20:51:33.700Z,11.82
2023-04-26T20:54:35.084Z,11.85
2023-04-26T20:57:37.578Z,11.86
2023-04-26T21:00:39.049Z,11.72
2023-04-26T21:03:40.631Z,11.64
2023-04-26T21:06:42.212Z,11.59
2023-04-26T21:09:43.617Z,11.54
2023-04-26T21:12:45.069Z,11.50
2023-04-26T21:15:47.052Z,11.48
2023-04-26T21:18:48.741Z,11.44
2023-04-26T21:21:51.197Z,11.41
2023-04-26T21:24:52.741Z,11.39
2023-04-26T21:27:54.209Z,11.39
2023-04-26T21:31:06.375Z,11.41
2023-04-26T21:34:07.873Z,11.45
2023-04-26T21:37:09.384Z,11.45
2023-04-26T21:40:11.488Z,11.38
2023-04-26T21:43:15.422Z,11.34
2023-04-26T21:46:16.854Z,11.41
2023-04-26T21:49:18.355Z,11.41
2023-04-26T21:52:19.807Z,11.42
2023-04-26T21:55:21.208Z,11.41
2023-04-26T21:58:23.099Z,11.42
2023-04-26T22:01:24.790Z,11.37
2023-04-26T22:04:26.637Z,11.36
2023-04-26T22:07:28.032Z,11.29
2023-04-26T22:10:29.494Z,11.24
2023-04-26T22:13:31.283Z,11.16
2023-04-26T22:16:32.732Z,11.13
2023-04-26T22:19:34.132Z,11.10
2023-04-26T22:22:35.516Z,11.03
2023-04-26T22:25:37.554Z,11.07
2023-04-26T22:28:38.972Z,10.98
2023-04-26T22:31:40.946Z,10.90
2023-04-26T22:34:43.821Z,10.76
2023-04-26T22:37:46.609Z,10.55
2023-04-26T22:40:48.032Z,10.44
2023-04-26T22:43:50.661Z,10.28
2023-04-26T22:46:55.186Z,10.23
2023-04-26T22:49:56.554Z,10.19
2023-04-26T22:52:57.914Z,10.07
2023-04-26T22:55:59.316Z,10.00
2023-04-26T22:59:00.864Z,9.81
2023-04-26T23:02:02.263Z,9.71
2023-04-26T23:05:05.195Z,9.57
2023-04-26T23:08:06.915Z,9.54
2023-04-26T23:11:08.963Z,9.64
2023-04-26T23:14:10.377Z,9.63
2023-04-26T23:17:12.000Z,9.65
2023-04-26T23:20:13.642Z,9.60
2023-04-26T23:23:15.024Z,9.46
2023-04-26T23:26:16.426Z,9.45
2023-04-26T23:29:17.801Z,9.30
2023-04-26T23:32:19.337Z,8.98
2023-04-26T23:35:20.794Z,9.00
2023-04-26T23:38:22.217Z,8.93
2023-04-26T23:41:23.688Z,8.90
2023-04-26T23:44:25.117Z,8.92
2023-04-26T23:47:26.701Z,8.94
2023-04-26T23:50:28.200Z,8.85
2023-04-26T23:53:29.635Z,8.84
2023-04-26T23:56:31.392Z,8.79
2023-04-26T23:59:32.803Z,8.74
